createdAt,value
2023-03-31T00:02:03.886Z,25.95
2023-03-31T00:04:42.913Z,24.17
2023-03-31T00:07:28.519Z,25.85
2023-03-31T00:10:17.776Z,26.48
2023-03-31T00:13:08.097Z,27.73
2023-03-31T00:15:54.456Z,23.25
2023-03-31T00:18:32.705Z,22.92
2023-03-31T00:21:36.289Z,27.42
2023-03-31T00:24:17.961Z,20.25
2023-03-31T00:26:58.114Z,16.40
2023-03-31T00:29:46.118Z,17.40
2023-03-31T00:32:26.799Z,15.18
2023-03-31T00:35:03.860Z,11.77
2023-03-31T00:37:39.532Z,11.35
2023-03-31T00:40:13.871Z,10.27
2023-03-31T00:42:52.349Z,12.18
2023-03-31T00:45:37.491Z,9.18
2023-03-31T00:48:25.648Z,15.23
2023-03-31T00:51:05.310Z,11.77
2023-03-31T00:53:43.959Z,10.27
2023-03-31T00:56:26.800Z,12.20
2023-03-31T00:59:09.827Z,7.93
2023-03-31T01:01:51.140Z,10.55
2023-03-31T01:04:29.410Z,9.18
2023-03-31T01:07:12.612Z,12.82
2023-03-31T01:09:58.254Z,11.63
2023-03-31T01:12:41.634Z,12.20
2023-03-31T01:15:18.488Z,10.18
2023-03-31T01:18:02.370Z,9.13
2023-03-31T01:21:33.389Z,14.27
2023-03-31T01:25:00.159Z,10.60
2023-03-31T01:28:30.308Z,8.57
2023-03-31T01:31:36.408Z,6.28
2023-03-31T01:34:42.812Z,7.00
2023-03-31T01:37:50.114Z,8.07
2023-03-31T01:40:59.087Z,6.60
2023-03-31T01:43:41.308Z,8.57
2023-03-31T01:46:31.257Z,6.05
2023-03-31T01:52:01.368Z,7.80
2023-03-31T01:54:43.884Z,4.55
2023-03-31T01:57:25.822Z,8.60
2023-03-31T02:00:09.058Z,9.80
2023-03-31T02:03:02.498Z,8.88
2023-03-31T02:05:40.695Z,6.50
2023-03-31T02:08:28.434Z,6.00
2023-03-31T02:11:07.832Z,6.60
2023-03-31T02:13:56.123Z,8.05
2023-03-31T02:16:43.525Z,4.72
2023-03-31T02:19:28.986Z,8.85
2023-03-31T02:22:22.294Z,6.35
2023-03-31T02:25:06.966Z,8.05
2023-03-31T02:27:44.874Z,7.35
2023-03-31T02:30:23.150Z,6.15
2023-03-31T02:33:02.673Z,6.13
2023-03-31T02:35:43.673Z,5.22
2023-03-31T02:38:29.472Z,10.00
2023-03-31T02:41:13.183Z,5.15
2023-03-31T02:44:02.494Z,8.63
2023-03-31T02:46:46.659Z,6.93
2023-03-31T02:49:39.428Z,7.47
2023-03-31T02:52:47.236Z,8.02
2023-03-31T02:56:08.833Z,11.23
2023-03-31T02:58:58.973Z,7.70
2023-03-31T03:01:59.372Z,6.25
2023-03-31T03:04:58.151Z,5.90
2023-03-31T03:07:57.243Z,4.93
2023-03-31T03:11:11.096Z,8.10
2023-03-31T03:13:53.572Z,12.20
2023-03-31T03:16:34.567Z,6.90
2023-03-31T03:19:27.921Z,4.05
2023-03-31T03:22:10.668Z,6.75
2023-03-31T03:25:04.227Z,10.30
2023-03-31T03:27:40.244Z,12.23
2023-03-31T03:30:18.064Z,7.68
2023-03-31T03:32:52.381Z,7.05
2023-03-31T03:35:38.844Z,8.90
2023-03-31T03:38:16.600Z,7.78
2023-03-31T03:41:10.627Z,8.80
2023-03-31T03:43:42.635Z,6.47
2023-03-31T03:46:20.321Z,6.95
2023-03-31T03:49:00.908Z,15.00
2023-03-31T03:51:50.929Z,4.60
2023-03-31T03:54:57.726Z,4.72
2023-03-31T03:57:37.869Z,4.75
2023-03-31T04:03:03.468Z,6.07
2023-03-31T04:05:36.932Z,5.07
2023-03-31T04:08:28.411Z,7.65
2023-03-31T04:11:02.218Z,5.88
2023-03-31T04:13:38.578Z,7.78
2023-03-31T04:16:18.624Z,7.20
2023-03-31T04:18:59.166Z,9.57
2023-03-31T04:21:35.951Z,6.13
2023-03-31T04:24:34.527Z,5.05
2023-03-31T04:27:29.276Z,6.78
2023-03-31T04:30:12.962Z,7.40
2023-03-31T04:32:54.191Z,8.63
2023-03-31T04:38:48.318Z,11.20
2023-03-31T04:41:34.427Z,6.93
2023-03-31T04:44:12.778Z,6.80
2023-03-31T04:46:52.178Z,7.05
2023-03-31T04:49:38.945Z,8.45
2023-03-31T04:52:25.068Z,12.20
2023-03-31T04:55:21.984Z,8.55
2023-03-31T04:58:03.709Z,10.98
2023-03-31T05:00:50.889Z,13.65
2023-03-31T05:03:29.755Z,7.22
2023-03-31T05:06:18.206Z,10.90
2023-03-31T05:08:51.979Z,6.53
2023-03-31T05:11:35.220Z,10.55
2023-03-31T05:14:21.148Z,11.85
2023-03-31T05:17:06.051Z,10.60
2023-03-31T05:22:29.557Z,10.80
2023-03-31T05:25:20.797Z,10.32
2023-03-31T05:28:06.771Z,12.80
2023-03-31T05:30:50.810Z,13.52
2023-03-31T05:33:43.562Z,13.77
2023-03-31T05:36:32.220Z,7.78
2023-03-31T05:39:19.939Z,12.10
2023-03-31T05:42:06.161Z,6.82
2023-03-31T05:44:50.740Z,8.35
2023-03-31T05:47:48.340Z,10.93
2023-03-31T05:50:24.877Z,6.97
2023-03-31T05:53:07.416Z,12.85
2023-03-31T05:55:46.035Z,17.83
2023-03-31T05:58:23.091Z,13.75
2023-03-31T06:01:10.161Z,12.95
2023-03-31T06:04:00.146Z,9.32
2023-03-31T06:06:41.715Z,14.95
2023-03-31T06:09:22.087Z,11.07
2023-03-31T06:11:59.008Z,13.02
2023-03-31T06:14:38.244Z,7.38
2023-03-31T06:17:13.980Z,5.47
2023-03-31T06:19:55.165Z,11.40
2023-03-31T06:22:37.386Z,8.77
2023-03-31T06:25:25.077Z,9.48
2023-03-31T06:28:06.018Z,6.70
2023-03-31T06:30:55.218Z,7.68
2023-03-31T06:33:43.913Z,8.85
2023-03-31T06:36:28.015Z,9.27
2023-03-31T06:39:09.710Z,14.73
2023-03-31T06:41:54.673Z,9.52
2023-03-31T06:44:40.606Z,8.57
2023-03-31T06:47:22.437Z,7.95
2023-03-31T06:49:55.011Z,10.50
2023-03-31T06:52:38.884Z,6.35
2023-03-31T06:55:28.996Z,8.02
2023-03-31T07:00:57.055Z,7.03
2023-03-31T07:03:34.742Z,5.75
2023-03-31T07:06:16.435Z,5.20
2023-03-31T07:08:59.003Z,7.78
2023-03-31T07:11:51.140Z,4.43
2023-03-31T07:17:18.864Z,8.77
2023-03-31T07:22:45.574Z,8.50
2023-03-31T07:25:36.484Z,12.80
2023-03-31T07:28:22.700Z,8.82
2023-03-31T07:31:22.686Z,9.98
2023-03-31T07:33:59.740Z,9.52
2023-03-31T07:36:33.605Z,6.25
2023-03-31T07:39:16.374Z,10.05
2023-03-31T07:41:57.769Z,9.48
2023-03-31T07:44:36.675Z,10.05
2023-03-31T07:47:18.810Z,6.93
2023-03-31T07:50:02.482Z,9.02
2023-03-31T07:52:49.822Z,9.07
2023-03-31T07:55:27.997Z,10.93
2023-03-31T07:58:12.285Z,6.68
2023-03-31T08:00:52.080Z,11.63
2023-03-31T08:03:37.122Z,10.25
2023-03-31T08:06:19.802Z,7.05
2023-03-31T08:09:16.557Z,5.38
2023-03-31T08:11:52.061Z,4.75
2023-03-31T08:14:41.601Z,6.20
2023-03-31T08:17:29.992Z,9.57
2023-03-31T08:20:13.452Z,4.50
2023-03-31T08:22:56.873Z,8.52
2023-03-31T08:28:32.564Z,6.28
2023-03-31T08:31:29.521Z,7.70
2023-03-31T08:34:14.476Z,6.68
2023-03-31T08:37:01.102Z,8.65
2023-03-31T08:39:50.767Z,4.65
2023-03-31T08:42:45.222Z,7.38
2023-03-31T08:45:28.384Z,7.85
2023-03-31T08:48:16.268Z,9.45
2023-03-31T08:51:08.803Z,7.78
2023-03-31T08:53:49.177Z,6.03
2023-03-31T08:56:35.709Z,6.15
2023-03-31T08:59:33.109Z,6.70
2023-03-31T09:02:20.100Z,7.22
2023-03-31T09:05:24.547Z,9.48
2023-03-31T09:08:20.816Z,4.68
2023-03-31T09:11:12.772Z,4.75
2023-03-31T09:14:25.981Z,4.65
2023-03-31T09:17:17.364Z,8.40
2023-03-31T09:23:02.968Z,11.02
2023-03-31T09:25:45.502Z,4.97
2023-03-31T09:28:33.600Z,4.28
2023-03-31T09:31:20.218Z,8.35
2023-03-31T09:34:18.201Z,8.65
2023-03-31T09:37:07.764Z,6.18
2023-03-31T09:39:44.781Z,7.72
2023-03-31T09:42:21.205Z,7.20
2023-03-31T09:45:00.568Z,6.95
2023-03-31T09:47:45.195Z,3.90
2023-03-31T09:50:32.249Z,8.40
2023-03-31T09:53:25.471Z,12.30
2023-03-31T09:56:16.544Z,4.22
2023-03-31T09:58:56.902Z,7.15
2023-03-31T10:01:34.985Z,5.63
2023-03-31T10:04:26.420Z,6.68
2023-03-31T10:07:11.850Z,5.28
2023-03-31T10:09:50.994Z,6.57
2023-03-31T10:12:38.298Z,4.07
2023-03-31T10:15:35.625Z,3.92
2023-03-31T10:18:34.623Z,2.92
2023-03-31T10:21:31.883Z,7.65
2023-03-31T10:24:13.086Z,9.32
2023-03-31T10:26:52.979Z,4.07
2023-03-31T10:29:44.939Z,10.35
2023-03-31T10:32:33.546Z,6.55
2023-03-31T10:35:13.706Z,6.45
2023-03-31T10:38:04.684Z,7.15
2023-03-31T10:40:59.727Z,8.13
2023-03-31T10:43:45.551Z,6.32
2023-03-31T10:46:27.950Z,5.65
2023-03-31T10:51:59.082Z,5.55
2023-03-31T10:54:45.064Z,5.07
2023-03-31T10:57:26.610Z,7.88
2023-03-31T11:00:33.023Z,8.73
2023-03-31T11:03:40.484Z,13.10
2023-03-31T11:06:32.141Z,5.75
2023-03-31T11:09:24.511Z,8.55
2023-03-31T11:12:16.296Z,7.28
2023-03-31T11:15:14.555Z,5.57
2023-03-31T11:18:23.071Z,7.10
2023-03-31T11:21:22.044Z,3.92
2023-03-31T11:24:17.573Z,6.60
2023-03-31T11:27:08.071Z,8.38
2023-03-31T11:29:53.088Z,3.88
2023-03-31T11:33:00.110Z,6.45
2023-03-31T11:36:14.402Z,4.53
2023-03-31T11:39:11.749Z,2.33
2023-03-31T11:41:57.375Z,8.52
2023-03-31T11:44:40.801Z,8.65
2023-03-31T11:47:33.326Z,6.70
2023-03-31T11:50:14.591Z,8.23
2023-03-31T11:53:09.714Z,7.57
2023-03-31T11:55:53.491Z,7.47
2023-03-31T11:58:35.277Z,6.88
2023-03-31T12:01:28.018Z,5.13
2023-03-31T12:04:16.513Z,4.90
2023-03-31T12:06:54.479Z,12.10
2023-03-31T12:09:52.313Z,6.18
2023-03-31T12:12:50.996Z,6.75
2023-03-31T12:15:35.857Z,6.72
2023-03-31T12:18:27.652Z,6.50
2023-03-31T12:21:14.794Z,9.35
2023-03-31T12:24:00.506Z,7.63
2023-03-31T12:27:04.298Z,8.68
2023-03-31T12:29:54.901Z,11.45
2023-03-31T12:32:38.936Z,5.75
2023-03-31T12:35:24.327Z,9.05
2023-03-31T12:38:20.228Z,8.75
2023-03-31T12:41:26.443Z,8.18
2023-03-31T12:44:30.589Z,3.30
2023-03-31T12:47:27.133Z,5.25
2023-03-31T12:50:35.153Z,11.35
2023-03-31T12:53:29.143Z,5.55
2023-03-31T12:56:02.923Z,10.77
2023-03-31T12:58:53.797Z,5.75
2023-03-31T13:01:42.573Z,4.00
2023-03-31T13:04:34.964Z,6.03
2023-03-31T13:07:27.884Z,10.27
2023-03-31T13:10:05.791Z,7.95
2023-03-31T13:12:46.447Z,6.50
2023-03-31T13:15:37.314Z,5.55
2023-03-31T13:18:31.584Z,9.40
2023-03-31T13:21:13.515Z,4.68
2023-03-31T13:24:03.834Z,8.65
2023-03-31T13:26:58.500Z,6.13
2023-03-31T13:30:02.441Z,6.75
2023-03-31T13:32:42.680Z,11.73
2023-03-31T13:35:33.000Z,7.65
2023-03-31T13:38:21.187Z,6.00
2023-03-31T13:41:15.038Z,6.65
2023-03-31T13:44:23.333Z,5.47
2023-03-31T13:47:34.155Z,6.10
2023-03-31T13:50:47.229Z,7.25
2023-03-31T13:53:41.637Z,6.95
2023-03-31T13:56:56.164Z,3.92
2023-03-31T14:00:13.499Z,6.50
2023-03-31T14:03:19.880Z,10.32
2023-03-31T14:06:13.619Z,7.53
2023-03-31T14:08:59.652Z,8.38
2023-03-31T14:11:45.760Z,5.15
2023-03-31T14:14:18.513Z,17.35
2023-03-31T14:17:09.173Z,6.05
2023-03-31T14:20:44.453Z,6.93
2023-03-31T14:23:40.081Z,7.07
2023-03-31T14:26:25.726Z,7.28
2023-03-31T14:29:13.154Z,5.50
2023-03-31T14:31:58.021Z,8.00
2023-03-31T14:34:57.141Z,5.55
2023-03-31T14:40:31.195Z,4.28
2023-03-31T14:43:32.635Z,11.02
2023-03-31T14:46:23.062Z,7.28
2023-03-31T14:49:03.717Z,7.40
2023-03-31T14:51:51.156Z,8.50
2023-03-31T14:54:28.601Z,10.52
2023-03-31T14:57:08.016Z,6.35
2023-03-31T14:59:46.377Z,8.82
2023-03-31T15:02:25.882Z,6.82
2023-03-31T15:05:04.446Z,4.10
2023-03-31T15:07:48.841Z,10.60
2023-03-31T15:10:28.341Z,3.83
2023-03-31T15:13:14.943Z,8.48
2023-03-31T15:15:50.589Z,7.50
2023-03-31T15:18:26.220Z,9.15
2023-03-31T15:21:03.695Z,9.23
2023-03-31T15:23:53.509Z,6.22
2023-03-31T15:26:42.140Z,9.30
2023-03-31T15:29:33.755Z,5.97
2023-03-31T15:32:16.161Z,6.28
2023-03-31T15:34:55.476Z,7.20
2023-03-31T15:37:37.173Z,5.70
2023-03-31T15:40:19.992Z,8.02
2023-03-31T15:43:25.965Z,8.65
2023-03-31T15:46:00.598Z,6.85
2023-03-31T15:48:54.151Z,11.45
2023-03-31T15:51:42.739Z,7.45
2023-03-31T15:54:37.813Z,9.90
2023-03-31T15:57:13.185Z,4.40
2023-03-31T16:00:03.966Z,6.05
2023-03-31T16:03:15.501Z,8.02
2023-03-31T16:06:04.958Z,7.88
2023-03-31T16:09:05.266Z,8.13
2023-03-31T16:11:47.804Z,7.18
2023-03-31T16:14:50.103Z,4.70
2023-03-31T16:17:37.317Z,11.43
2023-03-31T16:20:30.065Z,5.13
2023-03-31T16:26:25.812Z,7.57
2023-03-31T16:29:09.401Z,14.48
2023-03-31T16:31:53.363Z,6.97
2023-03-31T16:34:37.996Z,9.98
2023-03-31T16:37:25.204Z,5.60
2023-03-31T16:40:07.201Z,9.77
2023-03-31T16:42:40.470Z,8.02
2023-03-31T16:45:31.777Z,17.48
2023-03-31T16:48:26.027Z,15.23
2023-03-31T16:51:06.150Z,15.40
2023-03-31T16:54:10.228Z,12.95
2023-03-31T16:56:50.031Z,11.35
2023-03-31T16:59:33.104Z,12.73
2023-03-31T17:02:11.700Z,16.30
2023-03-31T17:04:56.602Z,14.95
2023-03-31T17:07:38.426Z,9.77
2023-03-31T17:10:26.567Z,12.57
2023-03-31T17:13:13.234Z,22.75
2023-03-31T17:16:13.502Z,18.58
2023-03-31T17:18:56.678Z,18.00
2023-03-31T17:21:38.934Z,24.05
2023-03-31T17:24:15.346Z,32.58
2023-03-31T17:26:55.925Z,18.25
2023-03-31T17:29:35.606Z,16.15
2023-03-31T17:32:17.792Z,14.35
2023-03-31T17:34:57.491Z,18.88
2023-03-31T17:37:40.909Z,19.38
2023-03-31T17:40:22.528Z,13.43
2023-03-31T17:43:01.137Z,22.08
2023-03-31T17:45:40.114Z,21.00
2023-03-31T17:48:23.435Z,25.40
2023-03-31T17:51:04.621Z,20.00
2023-03-31T17:53:56.440Z,20.23
2023-03-31T17:56:40.189Z,29.23
2023-03-31T17:59:24.956Z,25.10
2023-03-31T18:02:17.359Z,22.35
2023-03-31T18:04:58.402Z,22.42
2023-03-31T18:07:40.804Z,33.00
2023-03-31T18:10:17.492Z,31.00
2023-03-31T18:13:16.482Z,40.42
2023-03-31T18:16:03.910Z,44.58
2023-03-31T18:18:45.474Z,70.20
2023-03-31T18:21:32.106Z,75.15
2023-03-31T18:24:19.343Z,71.30
2023-03-31T18:26:57.843Z,66.20
2023-03-31T18:29:29.788Z,52.17
2023-03-31T18:32:26.998Z,47.97
2023-03-31T18:35:17.756Z,39.13
2023-03-31T18:38:04.274Z,30.00
2023-03-31T18:40:53.748Z,29.83
2023-03-31T18:43:34.028Z,29.98
2023-03-31T18:46:12.449Z,19.00
2023-03-31T18:48:59.789Z,20.92
2023-03-31T18:51:34.876Z,23.08
2023-03-31T18:54:12.043Z,26.48
2023-03-31T18:56:58.431Z,16.48
2023-03-31T18:59:41.827Z,16.00
2023-03-31T19:02:19.582Z,22.05
2023-03-31T19:05:03.505Z,27.25
2023-03-31T19:07:52.416Z,20.10
2023-03-31T19:10:37.898Z,14.85
2023-03-31T19:13:25.962Z,17.75
2023-03-31T19:16:02.441Z,21.25
2023-03-31T19:18:46.499Z,20.48
2023-03-31T19:21:36.608Z,22.67
2023-03-31T19:24:15.778Z,21.10
2023-03-31T19:27:01.687Z,25.17
2023-03-31T19:29:44.489Z,21.40
2023-03-31T19:32:18.697Z,29.77
2023-03-31T19:34:55.178Z,27.33
2023-03-31T19:37:35.308Z,30.58
2023-03-31T19:40:32.748Z,40.15
2023-03-31T19:43:10.599Z,40.13
2023-03-31T19:45:56.109Z,41.47
2023-03-31T19:48:40.212Z,28.33
2023-03-31T19:51:20.036Z,31.85
2023-03-31T19:53:58.427Z,36.30
2023-03-31T19:56:43.513Z,40.30
2023-03-31T19:59:33.208Z,37.85
2023-03-31T20:02:16.518Z,29.92
2023-03-31T20:04:52.498Z,38.83
2023-03-31T20:07:37.699Z,38.05
2023-03-31T20:10:21.870Z,38.30
2023-03-31T20:13:11.341Z,46.35
2023-03-31T20:15:51.032Z,42.13
2023-03-31T20:18:39.409Z,34.40
2023-03-31T20:21:16.139Z,33.58
2023-03-31T20:23:53.429Z,24.85
2023-03-31T20:26:36.707Z,26.17
2023-03-31T20:29:28.935Z,27.05
2023-03-31T20:32:09.726Z,27.67
2023-03-31T20:34:45.483Z,25.52
2023-03-31T20:37:21.258Z,28.08
2023-03-31T20:40:06.404Z,29.33
2023-03-31T20:42:44.139Z,30.05
2023-03-31T20:45:26.652Z,27.73
2023-03-31T20:48:02.446Z,22.50
2023-03-31T20:50:41.711Z,22.00
2023-03-31T20:53:19.651Z,19.50
2023-03-31T20:55:55.132Z,23.42
2023-03-31T20:58:33.296Z,22.15
2023-03-31T21:01:17.342Z,33.92
2023-03-31T21:04:02.023Z,22.08
2023-03-31T21:06:49.507Z,28.17
2023-03-31T21:09:46.199Z,15.77
2023-03-31T21:12:24.979Z,14.88
2023-03-31T21:15:12.602Z,17.58
2023-03-31T21:17:48.453Z,14.02
2023-03-31T21:20:32.002Z,11.30
2023-03-31T21:23:15.695Z,16.30
2023-03-31T21:26:00.678Z,20.60
2023-03-31T21:28:38.009Z,9.10
2023-03-31T21:31:28.795Z,12.00
2023-03-31T21:34:10.291Z,12.10
2023-03-31T21:36:46.680Z,15.88
2023-03-31T21:39:25.901Z,12.35
2023-03-31T21:42:01.701Z,10.32
2023-03-31T21:44:42.570Z,10.45
2023-03-31T21:47:29.029Z,9.20
2023-03-31T21:50:04.337Z,9.73
2023-03-31T21:52:51.422Z,11.70
2023-03-31T21:55:32.683Z,8.65
2023-03-31T21:58:10.215Z,12.85
2023-03-31T22:00:50.773Z,11.50
2023-03-31T22:06:19.580Z,7.72
2023-03-31T22:08:57.230Z,6.47
2023-03-31T22:11:31.673Z,13.20
2023-03-31T22:14:17.379Z,9.82
2023-03-31T22:16:55.828Z,8.38
2023-03-31T22:19:39.145Z,9.20
2023-03-31T22:22:19.826Z,8.02
2023-03-31T22:24:57.605Z,8.30
2023-03-31T22:27:40.669Z,8.27
2023-03-31T22:30:23.797Z,8.18
2023-03-31T22:33:02.997Z,8.85
2023-03-31T22:35:45.468Z,13.30
2023-03-31T22:38:21.044Z,9.60
2023-03-31T22:40:58.716Z,12.60
2023-03-31T22:43:36.536Z,12.52
2023-03-31T22:46:12.503Z,7.90
2023-03-31T22:49:09.667Z,10.02
2023-03-31T22:51:59.652Z,9.82
2023-03-31T22:54:34.727Z,10.15
2023-03-31T22:57:13.262Z,10.57
2023-03-31T22:59:51.558Z,9.75
2023-03-31T23:02:31.400Z,8.45
2023-03-31T23:05:09.955Z,15.27
2023-03-31T23:07:53.401Z,18.52
2023-03-31T23:10:45.721Z,11.70
2023-03-31T23:13:39.006Z,12.25
2023-03-31T23:16:26.269Z,10.68
2023-03-31T23:19:01.784Z,10.02
2023-03-31T23:21:41.163Z,13.13
2023-03-31T23:24:22.903Z,12.85
2023-03-31T23:27:04.276Z,11.50
2023-03-31T23:29:38.865Z,11.00
2023-03-31T23:32:15.917Z,9.25
2023-03-31T23:34:57.489Z,8.18
2023-03-31T23:37:33.949Z,9.32
2023-03-31T23:40:14.003Z,14.25
2023-03-31T23:42:54.120Z,13.40
2023-03-31T23:45:33.068Z,15.88
2023-03-31T23:48:17.298Z,13.85
2023-03-31T23:50:58.303Z,12.32
2023-03-31T23:53:40.325Z,8.32
2023-03-31T23:56:20.959Z,8.15
2023-03-31T23:59:04.244Z,10.55
